createdAt,value
2022-11-05T00:01:42.626Z,37.33
2022-11-05T00:04:30.898Z,33.67
2022-11-05T00:07:20.660Z,39.90
2022-11-05T00:10:44.760Z,35.40
2022-11-05T00:13:30.059Z,38.70
2022-11-05T00:16:15.362Z,39.90
2022-11-05T00:19:00.844Z,34.80
2022-11-05T00:21:46.115Z,45.13
2022-11-05T00:24:31.788Z,37.63
2022-11-05T00:27:16.969Z,29.43
2022-11-05T00:30:02.263Z,32.10
2022-11-05T00:32:49.131Z,30.20
2022-11-05T00:35:34.284Z,37.07
2022-11-05T00:38:19.367Z,74.83
2022-11-05T00:41:04.827Z,34.47
2022-11-05T00:43:50.022Z,22.53
2022-11-05T00:46:35.349Z,27.07
2022-11-05T00:49:20.361Z,28.03
2022-11-05T00:52:05.391Z,37.10
2022-11-05T00:54:50.453Z,34.60
2022-11-05T00:57:35.676Z,36.47
2022-11-05T01:00:21.628Z,39.00
2022-11-05T01:03:10.007Z,37.93
2022-11-05T01:05:58.133Z,22.00
2022-11-05T01:08:45.477Z,18.93
2022-11-05T01:11:30.629Z,18.60
2022-11-05T01:14:16.087Z,24.67
2022-11-05T01:17:01.290Z,22.80
2022-11-05T01:19:46.433Z,23.67
2022-11-05T01:22:31.862Z,31.77
2022-11-05T01:25:16.912Z,31.70
2022-11-05T01:28:03.207Z,26.97
2022-11-05T01:30:55.585Z,24.13
2022-11-05T01:33:40.834Z,70.73
2022-11-05T01:36:26.188Z,41.17
2022-11-05T01:39:11.313Z,88.67
2022-11-05T01:41:56.821Z,37.40
2022-11-05T01:45:03.443Z,33.50
2022-11-05T01:48:02.231Z,30.70
2022-11-05T01:50:55.337Z,33.03
2022-11-05T01:53:43.618Z,34.27
2022-11-05T01:56:40.618Z,49.03
2022-11-05T01:59:35.446Z,28.10
2022-11-05T02:02:21.212Z,33.17
2022-11-05T02:05:06.896Z,28.70
2022-11-05T02:07:53.479Z,24.80
2022-11-05T02:10:39.773Z,19.60
2022-11-05T02:13:25.218Z,22.63
2022-11-05T02:16:13.645Z,27.80
2022-11-05T02:19:07.617Z,29.33
2022-11-05T02:22:14.946Z,19.97
2022-11-05T02:25:02.452Z,63.33
2022-11-05T02:27:56.977Z,43.17
2022-11-05T02:31:01.312Z,25.70
2022-11-05T02:34:17.338Z,32.73
2022-11-05T02:37:17.114Z,36.50
2022-11-05T02:40:07.193Z,40.50
2022-11-05T02:43:15.367Z,38.77
2022-11-05T02:46:12.014Z,33.43
2022-11-05T02:49:09.403Z,37.43
2022-11-05T02:52:02.104Z,42.50
2022-11-05T02:55:03.761Z,59.03
2022-11-05T02:57:49.216Z,433.10
2022-11-05T03:00:53.387Z,410.43
2022-11-05T03:03:44.699Z,79.37
2022-11-05T03:06:52.622Z,170.60
2022-11-05T03:09:49.837Z,67.60
2022-11-05T03:12:53.812Z,89.13
2022-11-05T03:16:02.402Z,47.27
2022-11-05T03:18:50.781Z,95.10
2022-11-05T03:21:45.340Z,54.83
2022-11-05T03:24:34.100Z,70.67
2022-11-05T03:27:26.186Z,61.60
2022-11-05T03:30:13.738Z,499.60
2022-11-05T03:33:04.748Z,132.03
2022-11-05T03:36:00.612Z,145.90
2022-11-05T03:38:49.619Z,154.53
2022-11-05T03:41:38.377Z,115.63
2022-11-05T03:44:31.555Z,494.07
2022-11-05T03:47:26.380Z,111.73
2022-11-05T03:50:29.634Z,123.73
2022-11-05T03:53:18.321Z,201.40
2022-11-05T03:56:13.805Z,123.43
2022-11-05T03:59:01.631Z,247.10
2022-11-05T04:01:47.830Z,275.03
2022-11-05T04:04:33.372Z,357.70
2022-11-05T04:07:18.929Z,229.23
2022-11-05T04:10:04.524Z,121.80
2022-11-05T04:12:49.708Z,177.30
2022-11-05T04:15:35.117Z,228.00
2022-11-05T04:18:20.874Z,355.93
2022-11-05T04:21:07.120Z,168.07
2022-11-05T04:23:52.885Z,409.10
2022-11-05T04:26:40.971Z,292.17
2022-11-05T04:29:26.050Z,151.23
2022-11-05T04:32:11.106Z,105.97
2022-11-05T04:34:56.140Z,121.30
2022-11-05T04:37:41.177Z,108.97
2022-11-05T04:40:27.012Z,154.83
2022-11-05T04:43:15.416Z,191.73
2022-11-05T04:46:00.976Z,95.33
2022-11-05T04:48:46.553Z,191.63
2022-11-05T04:51:31.617Z,131.77
2022-11-05T04:54:17.180Z,120.50
2022-11-05T04:57:02.159Z,281.10
2022-11-05T04:59:50.347Z,150.43
2022-11-05T05:02:36.900Z,219.80
2022-11-05T05:05:22.535Z,154.13
2022-11-05T05:08:07.719Z,139.27
2022-11-05T05:10:53.020Z,128.17
2022-11-05T05:13:38.195Z,242.90
2022-11-05T05:16:26.011Z,120.97
2022-11-05T05:19:11.281Z,98.80
2022-11-05T05:21:56.920Z,141.83
2022-11-05T05:24:42.283Z,147.93
2022-11-05T05:27:28.382Z,340.90
2022-11-05T05:30:13.650Z,116.00
2022-11-05T05:33:02.548Z,296.73
2022-11-05T05:35:47.739Z,304.73
2022-11-05T05:38:33.833Z,385.40
2022-11-05T05:41:19.166Z,317.20
2022-11-05T05:44:05.508Z,162.40
2022-11-05T05:46:50.836Z,343.27
2022-11-05T05:49:36.215Z,396.37
2022-11-05T05:52:21.381Z,228.20
2022-11-05T05:55:06.752Z,170.07
2022-11-05T05:57:52.218Z,293.60
2022-11-05T06:00:37.722Z,315.20
2022-11-05T06:03:23.039Z,178.53
2022-11-05T06:06:13.199Z,260.80
2022-11-05T06:08:58.301Z,129.83
2022-11-05T06:11:43.709Z,314.97
2022-11-05T06:14:29.198Z,218.23
2022-11-05T06:17:14.548Z,244.70
2022-11-05T06:20:00.123Z,142.83
2022-11-05T06:22:54.499Z,314.87
2022-11-05T06:25:41.420Z,296.37
2022-11-05T06:28:27.234Z,216.50
2022-11-05T06:31:15.181Z,243.60
2022-11-05T06:34:04.223Z,501.33
2022-11-05T06:36:49.488Z,338.40
2022-11-05T06:39:34.518Z,277.13
2022-11-05T06:42:19.724Z,170.97
2022-11-05T06:45:05.598Z,421.83
2022-11-05T06:47:58.155Z,313.80
2022-11-05T06:50:45.211Z,574.60
2022-11-05T06:53:31.157Z,323.47
2022-11-05T06:56:16.446Z,559.60
2022-11-05T06:59:01.665Z,184.07
2022-11-05T07:01:47.233Z,139.80
2022-11-05T07:04:32.977Z,271.73
2022-11-05T07:07:18.197Z,569.10
2022-11-05T07:10:04.003Z,273.80
2022-11-05T07:12:49.537Z,350.87
2022-11-05T07:15:34.662Z,224.80
2022-11-05T07:18:19.943Z,82.33
2022-11-05T07:21:05.432Z,79.77
2022-11-05T07:23:50.919Z,133.43
2022-11-05T07:26:36.189Z,216.03
2022-11-05T07:29:21.427Z,100.67
2022-11-05T07:32:06.926Z,137.93
2022-11-05T07:34:52.313Z,84.67
2022-11-05T07:37:48.931Z,80.10
2022-11-05T07:40:33.723Z,157.10
2022-11-05T07:43:18.839Z,131.30
2022-11-05T07:46:04.117Z,99.83
2022-11-05T07:48:49.937Z,94.57
2022-11-05T07:51:35.218Z,73.63
2022-11-05T07:54:21.699Z,62.77
2022-11-05T07:57:07.113Z,84.57
2022-11-05T07:59:52.281Z,78.77
2022-11-05T08:02:38.057Z,73.93
2022-11-05T08:05:23.581Z,75.93
2022-11-05T08:08:09.849Z,68.23
2022-11-05T08:11:02.892Z,64.30
2022-11-05T08:13:47.937Z,60.50
2022-11-05T08:16:32.804Z,57.40
2022-11-05T08:19:17.964Z,57.53
2022-11-05T08:22:03.312Z,60.47
2022-11-05T08:24:48.582Z,55.60
2022-11-05T08:27:33.808Z,55.57
2022-11-05T08:30:19.159Z,55.30
2022-11-05T08:33:10.675Z,57.10
2022-11-05T08:35:56.953Z,58.17
2022-11-05T08:38:42.629Z,56.50
2022-11-05T08:41:28.417Z,52.07
2022-11-05T08:44:14.024Z,51.30
2022-11-05T08:46:59.495Z,55.33
2022-11-05T08:49:44.827Z,52.77
2022-11-05T08:52:30.144Z,51.57
2022-11-05T08:55:15.426Z,49.97
2022-11-05T08:58:03.424Z,51.13
2022-11-05T09:00:49.574Z,52.73
2022-11-05T09:03:35.202Z,50.93
2022-11-05T09:06:20.342Z,51.33
2022-11-05T09:09:05.802Z,43.20
2022-11-05T09:12:11.014Z,51.27
2022-11-05T09:14:59.488Z,44.33
2022-11-05T09:17:44.688Z,47.40
2022-11-05T09:20:30.006Z,46.77
2022-11-05T09:23:15.406Z,44.67
2022-11-05T09:26:02.325Z,43.93
2022-11-05T09:28:48.459Z,39.97
2022-11-05T09:31:33.715Z,39.03
2022-11-05T09:34:18.717Z,40.77
2022-11-05T09:37:04.411Z,42.53
2022-11-05T09:39:49.655Z,42.33
2022-11-05T09:42:41.599Z,38.07
2022-11-05T09:45:28.666Z,34.43
2022-11-05T09:48:17.556Z,38.30
2022-11-05T09:51:04.440Z,41.20
2022-11-05T09:53:49.871Z,36.30
2022-11-05T09:56:44.443Z,32.97
2022-11-05T09:59:40.531Z,34.20
2022-11-05T10:02:30.992Z,33.47
2022-11-05T10:05:18.778Z,32.83
2022-11-05T10:08:30.438Z,30.00
2022-11-05T10:11:25.427Z,32.37
2022-11-05T10:14:18.224Z,31.93
2022-11-05T10:17:25.156Z,31.70
2022-11-05T10:20:16.808Z,33.47
2022-11-05T10:23:16.317Z,32.03
2022-11-05T10:26:13.977Z,29.97
2022-11-05T10:28:59.569Z,28.17
2022-11-05T10:31:48.192Z,34.33
2022-11-05T10:34:39.109Z,28.97
2022-11-05T10:37:26.911Z,28.13
2022-11-05T10:40:36.661Z,27.30
2022-11-05T10:43:47.385Z,28.33
2022-11-05T10:46:37.597Z,27.23
2022-11-05T10:49:42.280Z,26.30
2022-11-05T10:52:31.684Z,29.97
2022-11-05T10:55:22.817Z,29.37
2022-11-05T10:58:17.223Z,26.83
2022-11-05T11:01:07.226Z,26.03
2022-11-05T11:04:05.611Z,29.17
2022-11-05T11:06:56.211Z,23.60
2022-11-05T11:09:48.337Z,28.20
2022-11-05T11:12:42.447Z,23.40
2022-11-05T11:15:30.058Z,24.13
2022-11-05T11:18:40.451Z,22.87
2022-11-05T11:21:25.814Z,22.37
2022-11-05T11:24:20.650Z,25.20
2022-11-05T11:27:11.198Z,21.07
2022-11-05T11:30:06.529Z,22.37
2022-11-05T11:33:03.472Z,21.33
2022-11-05T11:35:48.768Z,22.20
2022-11-05T11:38:35.772Z,20.93
2022-11-05T11:41:35.246Z,21.40
2022-11-05T11:44:26.029Z,21.27
2022-11-05T11:47:18.674Z,21.30
2022-11-05T11:50:03.894Z,21.10
2022-11-05T11:52:49.333Z,20.50
2022-11-05T11:55:34.127Z,18.27
2022-11-05T11:58:19.144Z,20.17
2022-11-05T12:01:15.658Z,21.20
2022-11-05T12:04:19.574Z,17.07
2022-11-05T12:07:23.806Z,19.17
2022-11-05T12:10:26.069Z,20.03
2022-11-05T12:13:21.368Z,16.50
2022-11-05T12:16:20.453Z,21.93
2022-11-05T12:19:40.828Z,16.17
2022-11-05T12:23:01.863Z,19.00
2022-11-05T12:26:10.455Z,17.43
2022-11-05T12:29:19.362Z,19.00
2022-11-05T12:32:23.679Z,22.67
2022-11-05T12:35:14.580Z,19.98
2022-11-05T12:38:47.451Z,17.10
2022-11-05T12:41:46.194Z,17.93
2022-11-05T12:45:00.462Z,17.23
2022-11-05T12:48:04.204Z,17.07
2022-11-05T12:51:00.695Z,15.90
2022-11-05T12:53:51.763Z,19.33
2022-11-05T12:56:45.291Z,18.13
2022-11-05T12:59:34.401Z,17.53
2022-11-05T13:02:26.524Z,17.10
2022-11-05T13:05:36.027Z,16.57
2022-11-05T13:08:31.222Z,14.00
2022-11-05T13:11:21.360Z,15.97
2022-11-05T13:14:06.613Z,17.37
2022-11-05T13:16:59.949Z,19.40
2022-11-05T13:20:05.654Z,19.17
2022-11-05T13:23:35.267Z,17.77
2022-11-05T13:26:47.367Z,19.47
2022-11-05T13:29:45.343Z,20.57
2022-11-05T13:32:40.834Z,17.10
2022-11-05T13:35:52.240Z,16.83
2022-11-05T13:38:41.504Z,16.77
2022-11-05T13:41:30.275Z,18.57
2022-11-05T13:44:27.909Z,16.43
2022-11-05T13:47:34.189Z,19.23
2022-11-05T13:50:25.289Z,21.13
2022-11-05T13:53:35.520Z,19.40
2022-11-05T13:56:29.476Z,20.83
2022-11-05T13:59:57.539Z,20.10
2022-11-05T14:02:59.780Z,17.97
2022-11-05T14:05:57.546Z,17.23
2022-11-05T14:08:46.265Z,18.80
2022-11-05T14:11:34.919Z,20.00
2022-11-05T14:14:29.541Z,17.40
2022-11-05T14:17:27.315Z,14.77
2022-11-05T14:20:56.278Z,18.17
2022-11-05T14:23:50.217Z,17.73
2022-11-05T14:26:35.486Z,17.43
2022-11-05T14:29:23.489Z,18.37
2022-11-05T14:32:17.638Z,17.60
2022-11-05T14:35:02.578Z,18.57
2022-11-05T14:37:53.836Z,18.57
2022-11-05T14:40:40.526Z,20.60
2022-11-05T14:43:27.752Z,19.37
2022-11-05T14:46:13.890Z,18.47
2022-11-05T14:49:09.142Z,19.50
2022-11-05T14:51:57.302Z,18.13
2022-11-05T14:54:50.853Z,16.15
2022-11-05T14:57:41.636Z,18.10
2022-11-05T15:00:29.739Z,15.93
2022-11-05T15:03:46.856Z,16.67
2022-11-05T15:06:38.762Z,17.87
2022-11-05T15:09:51.631Z,15.30
2022-11-05T15:12:39.661Z,18.83
2022-11-05T15:15:27.959Z,20.53
2022-11-05T15:18:45.874Z,17.43
2022-11-05T15:21:39.349Z,17.47
2022-11-05T15:24:26.430Z,17.50
2022-11-05T15:27:27.622Z,15.77
2022-11-05T15:30:21.859Z,22.70
2022-11-05T15:33:19.020Z,18.50
2022-11-05T15:36:27.782Z,16.83
2022-11-05T15:39:38.611Z,19.13
2022-11-05T15:42:25.834Z,17.70
2022-11-05T15:45:20.553Z,18.93
2022-11-05T15:48:18.974Z,19.00
2022-11-05T15:51:04.723Z,16.60
2022-11-05T15:54:23.924Z,17.37
2022-11-05T15:56:57.185Z,18.20
2022-11-05T15:59:46.864Z,14.97
2022-11-05T16:02:34.511Z,16.83
2022-11-05T16:05:20.384Z,18.47
2022-11-05T16:08:05.492Z,16.60
2022-11-05T16:10:53.661Z,16.73
2022-11-05T16:13:43.045Z,15.10
2022-11-05T16:16:33.895Z,19.70
2022-11-05T16:19:41.751Z,16.90
2022-11-05T16:22:54.643Z,14.00
2022-11-05T16:25:43.315Z,19.80
2022-11-05T16:28:29.901Z,15.23
2022-11-05T16:31:15.036Z,19.00
2022-11-05T16:34:01.639Z,16.30
2022-11-05T16:36:46.723Z,16.03
2022-11-05T16:39:31.576Z,18.53
2022-11-05T16:42:22.419Z,15.93
2022-11-05T16:45:11.395Z,16.93
2022-11-05T16:47:56.513Z,18.37
2022-11-05T16:50:42.602Z,20.37
2022-11-05T16:53:27.976Z,16.43
2022-11-05T16:56:21.342Z,17.83
2022-11-05T16:59:09.319Z,17.00
2022-11-05T17:01:56.014Z,18.17
2022-11-05T17:04:41.591Z,18.40
2022-11-05T17:07:26.908Z,18.90
2022-11-05T17:10:11.844Z,17.33
2022-11-05T17:12:56.938Z,16.03
2022-11-05T17:15:43.888Z,18.07
2022-11-05T17:18:28.925Z,20.07
2022-11-05T17:21:13.783Z,19.00
2022-11-05T17:23:59.079Z,17.50
2022-11-05T17:26:44.544Z,18.17
2022-11-05T17:29:29.878Z,18.13
2022-11-05T17:32:14.697Z,20.93
2022-11-05T17:34:59.513Z,17.33
2022-11-05T17:37:44.533Z,18.00
2022-11-05T17:40:29.761Z,15.43
2022-11-05T17:43:15.150Z,15.73
2022-11-05T17:46:04.359Z,16.53
2022-11-05T17:48:49.539Z,16.10
2022-11-05T17:51:34.683Z,17.23
2022-11-05T17:54:19.555Z,16.27
2022-11-05T17:57:05.098Z,17.97
2022-11-05T17:59:50.257Z,18.87
2022-11-05T18:02:35.303Z,18.37
2022-11-05T18:05:22.022Z,19.00
2022-11-05T18:08:08.530Z,18.77
2022-11-05T18:10:53.955Z,20.30
2022-11-05T18:13:39.026Z,18.27
2022-11-05T18:16:24.557Z,19.47
2022-11-05T18:19:12.955Z,17.37
2022-11-05T18:21:58.024Z,18.67
2022-11-05T18:24:43.720Z,18.30
2022-11-05T18:27:28.836Z,15.57
2022-11-05T18:30:14.056Z,16.17
2022-11-05T18:32:59.175Z,15.63
2022-11-05T18:35:44.565Z,15.23
2022-11-05T18:38:35.391Z,17.77
2022-11-05T18:41:21.652Z,15.83
2022-11-05T18:44:07.110Z,16.23
2022-11-05T18:46:57.942Z,15.80
2022-11-05T18:49:43.731Z,15.53
2022-11-05T18:52:28.540Z,18.27
2022-11-05T18:55:13.387Z,16.70
2022-11-05T18:57:58.329Z,17.53
2022-11-05T19:00:43.158Z,16.53
2022-11-05T19:03:28.577Z,17.23
2022-11-05T19:06:13.787Z,14.10
2022-11-05T19:08:58.924Z,14.87
2022-11-05T19:11:43.725Z,17.93
2022-11-05T19:14:29.236Z,15.23
2022-11-05T19:17:15.469Z,16.30
2022-11-05T19:20:08.002Z,15.67
2022-11-05T19:22:53.243Z,15.60
2022-11-05T19:25:44.116Z,15.20
2022-11-05T19:28:29.028Z,17.03
2022-11-05T19:31:17.555Z,16.13
2022-11-05T19:34:04.681Z,16.23
2022-11-05T19:36:49.764Z,16.37
2022-11-05T19:39:35.745Z,17.03
2022-11-05T19:42:27.242Z,17.17
2022-11-05T19:45:38.215Z,15.90
2022-11-05T19:48:19.689Z,17.87
2022-11-05T19:51:16.177Z,19.90
2022-11-05T19:54:02.279Z,14.57
2022-11-05T19:56:50.073Z,18.47
2022-11-05T19:59:35.209Z,15.90
2022-11-05T20:02:20.156Z,18.17
2022-11-05T20:05:05.586Z,18.40
2022-11-05T20:07:52.992Z,16.37
2022-11-05T20:10:38.347Z,17.63
2022-11-05T20:13:23.953Z,18.67
2022-11-05T20:16:19.712Z,18.17
2022-11-05T20:19:07.555Z,16.53
2022-11-05T20:21:52.612Z,15.90
2022-11-05T20:24:38.212Z,19.17
2022-11-05T20:27:23.351Z,17.13
2022-11-05T20:30:09.345Z,18.63
2022-11-05T20:32:56.284Z,16.33
2022-11-05T20:35:41.799Z,16.43
2022-11-05T20:38:27.222Z,16.57
2022-11-05T20:41:14.192Z,16.83
2022-11-05T20:43:59.393Z,16.50
2022-11-05T20:46:44.804Z,15.70
2022-11-05T20:49:31.755Z,17.23
2022-11-05T20:52:16.818Z,18.90
2022-11-05T20:55:01.811Z,18.53
2022-11-05T20:57:47.241Z,16.10
2022-11-05T21:00:32.074Z,18.37
2022-11-05T21:03:17.765Z,19.37
2022-11-05T21:06:05.037Z,16.43
2022-11-05T21:08:51.327Z,18.33
2022-11-05T21:11:36.461Z,17.43
2022-11-05T21:14:24.823Z,17.53
2022-11-05T21:17:13.508Z,17.77
2022-11-05T21:19:58.560Z,19.67
2022-11-05T21:22:43.877Z,19.90
2022-11-05T21:25:28.804Z,17.50
2022-11-05T21:28:15.963Z,19.73
2022-11-05T21:31:02.729Z,18.90
2022-11-05T21:33:53.959Z,21.00
2022-11-05T21:36:46.496Z,18.70
2022-11-05T21:39:33.210Z,19.07
2022-11-05T21:42:24.344Z,18.23
2022-11-05T21:45:10.682Z,19.97
2022-11-05T21:47:56.352Z,17.77
2022-11-05T21:50:42.081Z,20.90
2022-11-05T21:53:27.442Z,19.40
2022-11-05T21:56:24.315Z,20.40
2022-11-05T21:59:18.026Z,20.27
2022-11-05T22:02:04.570Z,18.23
2022-11-05T22:04:52.902Z,18.70
2022-11-05T22:07:39.059Z,21.17
2022-11-05T22:10:24.243Z,18.03
2022-11-05T22:13:09.526Z,18.60
2022-11-05T22:15:57.787Z,18.57
2022-11-05T22:18:42.645Z,18.33
2022-11-05T22:21:27.541Z,18.67
2022-11-05T22:24:12.768Z,19.13
2022-11-05T22:27:04.163Z,19.07
2022-11-05T22:29:49.960Z,19.27
2022-11-05T22:32:35.029Z,20.53
2022-11-05T22:35:19.938Z,19.77
2022-11-05T22:38:05.456Z,20.53
2022-11-05T22:40:50.869Z,19.70
2022-11-05T22:43:36.531Z,19.43
2022-11-05T22:46:24.232Z,20.53
2022-11-05T22:49:09.383Z,19.87
2022-11-05T22:51:54.626Z,22.27
2022-11-05T22:54:39.702Z,18.67
2022-11-05T22:57:24.722Z,16.27
2022-11-05T23:00:16.159Z,20.43
2022-11-05T23:03:01.684Z,19.67
2022-11-05T23:05:47.095Z,18.90
2022-11-05T23:08:33.534Z,21.30
2022-11-05T23:11:21.211Z,20.33
2022-11-05T23:14:12.239Z,17.53
2022-11-05T23:16:57.108Z,19.50
2022-11-05T23:19:42.715Z,18.70
2022-11-05T23:22:29.349Z,19.77
2022-11-05T23:25:20.327Z,19.30
2022-11-05T23:28:07.950Z,20.13
2022-11-05T23:30:53.305Z,17.07
2022-11-05T23:33:38.720Z,16.57
2022-11-05T23:36:23.910Z,24.30
2022-11-05T23:39:09.132Z,16.80
2022-11-05T23:41:53.910Z,17.70
2022-11-05T23:44:38.945Z,19.63
2022-11-05T23:47:23.752Z,21.33
2022-11-05T23:50:08.822Z,23.47
2022-11-05T23:52:54.310Z,19.53
2022-11-05T23:55:39.462Z,21.57
2022-11-05T23:58:24.482Z,19.07
